createdAt,value
2022-12-09T00:00:05.754Z,19.13
2022-12-09T00:02:48.965Z,19.95
2022-12-09T00:05:31.957Z,17.52
2022-12-09T00:08:14.886Z,16.95
2022-12-09T00:10:57.912Z,17.25
2022-12-09T00:13:42.216Z,14.85
2022-12-09T00:16:25.967Z,15.88
2022-12-09T00:19:08.846Z,16.20
2022-12-09T00:21:51.553Z,15.27
2022-12-09T00:24:34.287Z,16.70
2022-12-09T00:27:17.132Z,15.98
2022-12-09T00:30:01.220Z,17.25
2022-12-09T00:32:44.556Z,14.48
2022-12-09T00:35:29.087Z,14.00
2022-12-09T00:38:11.907Z,13.27
2022-12-09T00:40:54.658Z,11.20
2022-12-09T00:43:37.524Z,12.75
2022-12-09T00:46:21.802Z,11.25
2022-12-09T00:49:05.252Z,12.50
2022-12-09T00:51:48.333Z,12.10
2022-12-09T00:54:31.388Z,13.60
2022-12-09T00:57:14.682Z,11.90
2022-12-09T00:59:57.668Z,12.95
2022-12-09T01:02:42.036Z,14.35
2022-12-09T01:05:25.992Z,13.35
2022-12-09T01:08:09.928Z,12.25
2022-12-09T01:10:53.683Z,12.70
2022-12-09T01:13:36.398Z,13.48
2022-12-09T01:16:21.073Z,14.15
2022-12-09T01:19:06.837Z,13.13
2022-12-09T01:21:49.665Z,15.35
2022-12-09T01:24:32.464Z,14.40
2022-12-09T01:27:15.186Z,14.25
2022-12-09T01:29:57.898Z,14.30
2022-12-09T01:32:40.849Z,13.05
2022-12-09T01:35:25.063Z,12.82
2022-12-09T01:38:07.956Z,12.25
2022-12-09T01:40:51.393Z,12.88
2022-12-09T01:43:34.129Z,13.32
2022-12-09T01:46:17.252Z,12.60
2022-12-09T01:49:02.936Z,13.10
2022-12-09T01:51:50.330Z,13.55
2022-12-09T01:54:33.998Z,16.15
2022-12-09T01:57:18.571Z,13.77
2022-12-09T02:00:01.332Z,13.90
2022-12-09T02:02:46.740Z,13.68
2022-12-09T02:05:31.701Z,14.55
2022-12-09T02:08:18.712Z,13.23
2022-12-09T02:11:06.288Z,12.52
2022-12-09T02:13:57.849Z,16.98
2022-12-09T02:16:46.240Z,12.90
2022-12-09T02:19:44.681Z,16.13
2022-12-09T02:22:30.519Z,16.30
2022-12-09T02:25:23.720Z,17.00
2022-12-09T02:28:12.514Z,14.55
2022-12-09T02:30:59.227Z,14.98
2022-12-09T02:33:45.109Z,14.85
2022-12-09T02:36:34.995Z,16.17
2022-12-09T02:39:19.145Z,16.05
2022-12-09T02:42:04.501Z,14.48
2022-12-09T02:44:48.434Z,15.93
2022-12-09T02:47:33.523Z,14.98
2022-12-09T02:50:19.817Z,17.13
2022-12-09T02:53:07.152Z,16.85
2022-12-09T02:55:50.485Z,16.40
2022-12-09T02:58:33.369Z,18.42
2022-12-09T03:01:21.274Z,17.95
2022-12-09T03:04:04.875Z,17.45
2022-12-09T03:06:49.338Z,19.70
2022-12-09T03:09:35.155Z,16.20
2022-12-09T03:12:20.118Z,14.20
2022-12-09T03:15:05.197Z,16.23
2022-12-09T03:17:48.662Z,16.90
2022-12-09T03:20:31.739Z,16.92
2022-12-09T03:23:16.105Z,18.95
2022-12-09T03:26:01.597Z,15.07
2022-12-09T03:28:46.437Z,17.35
2022-12-09T03:31:31.040Z,16.77
2022-12-09T03:34:15.170Z,13.50
2022-12-09T03:36:59.480Z,15.88
2022-12-09T03:39:42.561Z,16.10
2022-12-09T03:42:29.715Z,16.10
2022-12-09T03:45:13.089Z,17.13
2022-12-09T03:47:56.521Z,16.05
2022-12-09T03:50:42.537Z,16.05
2022-12-09T03:53:28.275Z,15.75
2022-12-09T03:56:12.970Z,15.05
2022-12-09T03:58:59.826Z,16.33
2022-12-09T04:01:43.711Z,14.98
2022-12-09T04:04:28.064Z,17.00
2022-12-09T04:07:11.209Z,17.13
2022-12-09T04:09:57.250Z,15.18
2022-12-09T04:12:40.377Z,16.02
2022-12-09T04:15:24.547Z,15.90
2022-12-09T04:18:07.337Z,15.63
2022-12-09T04:20:50.100Z,16.25
2022-12-09T04:23:35.545Z,15.50
2022-12-09T04:26:22.063Z,15.00
2022-12-09T04:29:05.004Z,19.00
2022-12-09T04:31:49.527Z,18.10
2022-12-09T04:34:33.338Z,19.17
2022-12-09T04:37:16.078Z,16.52
2022-12-09T04:39:58.799Z,15.48
2022-12-09T04:42:41.804Z,16.55
2022-12-09T04:45:24.977Z,15.95
2022-12-09T04:48:09.331Z,16.02
2022-12-09T04:50:52.050Z,15.18
2022-12-09T04:53:34.920Z,14.18
2022-12-09T04:56:19.822Z,15.38
2022-12-09T04:59:02.611Z,16.38
2022-12-09T05:01:45.759Z,16.15
2022-12-09T05:04:30.464Z,16.48
2022-12-09T05:07:13.850Z,19.70
2022-12-09T05:09:58.191Z,17.52
2022-12-09T05:12:41.539Z,15.32
2022-12-09T05:15:24.474Z,16.30
2022-12-09T05:18:07.473Z,16.02
2022-12-09T05:20:51.829Z,16.88
2022-12-09T05:23:35.094Z,17.75
2022-12-09T05:26:19.425Z,16.48
2022-12-09T05:29:02.429Z,17.45
2022-12-09T05:31:45.435Z,16.52
2022-12-09T05:34:28.512Z,19.05
2022-12-09T05:37:16.151Z,15.70
2022-12-09T05:39:59.360Z,19.63
2022-12-09T05:42:42.333Z,18.42
2022-12-09T05:45:25.663Z,20.42
2022-12-09T05:48:09.096Z,20.77
2022-12-09T05:50:57.662Z,19.48
2022-12-09T05:53:42.151Z,18.23
2022-12-09T05:56:25.925Z,19.30
2022-12-09T05:59:10.374Z,19.00
2022-12-09T06:01:53.901Z,19.50
2022-12-09T06:04:36.937Z,16.25
2022-12-09T06:07:19.960Z,16.50
2022-12-09T06:10:05.285Z,16.05
2022-12-09T06:12:48.465Z,16.63
2022-12-09T06:15:33.514Z,14.90
2022-12-09T06:18:16.722Z,15.20
2022-12-09T06:21:00.396Z,17.42
2022-12-09T06:23:43.756Z,15.40
2022-12-09T06:26:29.828Z,16.73
2022-12-09T06:29:12.837Z,15.85
2022-12-09T06:31:55.726Z,15.52
2022-12-09T06:34:38.925Z,16.75
2022-12-09T06:37:22.428Z,14.00
2022-12-09T06:40:05.486Z,16.63
2022-12-09T06:42:50.571Z,15.98
2022-12-09T06:45:33.743Z,14.98
2022-12-09T06:48:16.669Z,15.55
2022-12-09T06:50:59.848Z,16.60
2022-12-09T06:53:42.957Z,15.30
2022-12-09T06:56:25.674Z,16.58
2022-12-09T06:59:10.808Z,15.40
2022-12-09T07:01:54.453Z,13.30
2022-12-09T07:04:37.709Z,14.75
2022-12-09T07:07:21.012Z,13.88
2022-12-09T07:10:04.811Z,15.98
2022-12-09T07:12:47.655Z,15.43
2022-12-09T07:15:32.145Z,14.25
2022-12-09T07:18:15.318Z,14.13
2022-12-09T07:20:58.175Z,13.35
2022-12-09T07:23:40.938Z,15.30
2022-12-09T07:26:23.790Z,13.35
2022-12-09T07:29:08.111Z,15.15
2022-12-09T07:31:52.783Z,15.48
2022-12-09T07:34:35.823Z,17.48
2022-12-09T07:37:18.832Z,16.60
2022-12-09T07:40:01.824Z,13.88
2022-12-09T07:42:44.674Z,13.85
2022-12-09T07:45:27.875Z,13.48
2022-12-09T07:48:12.793Z,17.00
2022-12-09T07:50:55.801Z,16.95
2022-12-09T07:53:39.216Z,14.75
2022-12-09T07:56:23.126Z,15.02
2022-12-09T07:59:07.162Z,13.52
2022-12-09T08:01:49.983Z,14.15
2022-12-09T08:04:36.441Z,14.48
2022-12-09T08:07:20.250Z,14.68
2022-12-09T08:10:03.687Z,13.95
2022-12-09T08:12:46.785Z,14.30
2022-12-09T08:15:29.786Z,13.35
2022-12-09T08:18:12.770Z,13.45
2022-12-09T08:20:57.438Z,15.38
2022-12-09T08:23:41.055Z,13.70
2022-12-09T08:26:25.535Z,15.05
2022-12-09T08:29:09.404Z,14.82
2022-12-09T08:31:53.016Z,15.70
2022-12-09T08:34:35.955Z,15.93
2022-12-09T08:37:20.655Z,16.40
2022-12-09T08:40:03.680Z,16.25
2022-12-09T08:42:46.478Z,17.50
2022-12-09T08:45:29.564Z,18.00
2022-12-09T08:48:12.727Z,17.52
2022-12-09T08:50:56.111Z,20.48
2022-12-09T08:53:40.787Z,20.23
2022-12-09T08:56:23.917Z,17.75
2022-12-09T08:59:07.504Z,17.42
2022-12-09T09:01:50.539Z,18.27
2022-12-09T09:04:33.861Z,16.02
2022-12-09T09:07:17.503Z,17.63
2022-12-09T09:10:02.641Z,17.70
2022-12-09T09:12:45.663Z,17.48
2022-12-09T09:15:28.424Z,18.52
2022-12-09T09:18:11.747Z,15.23
2022-12-09T09:20:59.588Z,18.98
2022-12-09T09:23:43.232Z,16.08
2022-12-09T09:26:28.199Z,16.75
2022-12-09T09:29:11.897Z,16.25
2022-12-09T09:31:55.665Z,16.95
2022-12-09T09:34:39.321Z,16.98
2022-12-09T09:37:22.614Z,17.58
2022-12-09T09:40:06.463Z,17.27
2022-12-09T09:42:53.662Z,17.98
2022-12-09T09:45:36.693Z,17.63
2022-12-09T09:48:22.574Z,18.00
2022-12-09T09:51:07.367Z,16.33
2022-12-09T09:53:51.344Z,14.93
2022-12-09T09:56:38.242Z,16.35
2022-12-09T09:59:26.324Z,17.60
2022-12-09T10:02:19.988Z,16.92
2022-12-09T10:05:07.006Z,15.18
2022-12-09T10:07:53.640Z,17.92
2022-12-09T10:10:43.445Z,14.50
2022-12-09T10:13:34.149Z,16.40
2022-12-09T10:16:20.118Z,15.48
2022-12-09T10:19:08.897Z,14.52
2022-12-09T10:21:54.683Z,13.65
2022-12-09T10:24:40.733Z,15.57
2022-12-09T10:27:29.036Z,16.38
2022-12-09T10:30:13.100Z,13.40
2022-12-09T10:32:58.124Z,14.43
2022-12-09T10:35:41.502Z,14.60
2022-12-09T10:38:26.141Z,14.13
2022-12-09T10:41:13.204Z,13.32
2022-12-09T10:44:14.936Z,16.10
2022-12-09T10:46:59.106Z,14.63
2022-12-09T10:49:43.973Z,14.02
2022-12-09T10:52:28.502Z,13.32
2022-12-09T10:55:22.295Z,13.73
2022-12-09T10:58:13.126Z,12.43
2022-12-09T11:01:00.643Z,13.02
2022-12-09T11:03:49.089Z,15.18
2022-12-09T11:06:42.162Z,13.20
2022-12-09T11:09:27.868Z,12.18
2022-12-09T11:12:17.736Z,12.90
2022-12-09T11:15:02.031Z,14.25
2022-12-09T11:17:56.718Z,13.70
2022-12-09T11:20:40.943Z,13.18
2022-12-09T11:23:25.486Z,14.90
2022-12-09T11:26:22.512Z,15.93
2022-12-09T11:29:06.918Z,11.75
2022-12-09T11:31:50.138Z,13.43
2022-12-09T11:34:34.367Z,13.02
2022-12-09T11:37:17.307Z,12.73
2022-12-09T11:40:01.465Z,12.70
2022-12-09T11:42:44.576Z,11.75
2022-12-09T11:45:30.807Z,11.35
2022-12-09T11:48:29.859Z,13.05
2022-12-09T11:51:21.221Z,11.13
2022-12-09T11:54:06.694Z,13.25
2022-12-09T11:56:51.360Z,11.38
2022-12-09T11:59:38.485Z,10.10
2022-12-09T12:02:24.937Z,14.85
2022-12-09T12:05:10.369Z,10.35
2022-12-09T12:08:04.204Z,13.45
2022-12-09T12:10:48.210Z,12.55
2022-12-09T12:13:35.919Z,11.43
2022-12-09T12:16:21.906Z,14.45
2022-12-09T12:19:06.910Z,13.18
2022-12-09T12:21:55.315Z,12.35
2022-12-09T12:24:52.984Z,10.07
2022-12-09T12:27:56.816Z,12.38
2022-12-09T12:30:45.865Z,10.77
2022-12-09T12:34:07.781Z,13.55
2022-12-09T12:36:39.679Z,11.38
2022-12-09T12:39:29.043Z,12.50
2022-12-09T12:42:20.027Z,12.02
2022-12-09T12:45:22.123Z,15.15
2022-12-09T12:48:09.063Z,11.93
2022-12-09T12:50:57.692Z,12.23
2022-12-09T12:53:42.857Z,13.27
2022-12-09T12:56:28.987Z,12.20
2022-12-09T12:59:14.671Z,13.98
2022-12-09T13:01:59.077Z,14.27
2022-12-09T13:04:46.401Z,11.88
2022-12-09T13:07:31.876Z,12.63
2022-12-09T13:10:17.726Z,12.98
2022-12-09T13:13:02.569Z,12.15
2022-12-09T13:15:46.674Z,13.23
2022-12-09T13:18:30.320Z,14.50
2022-12-09T13:21:14.983Z,12.52
2022-12-09T13:24:02.842Z,13.60
2022-12-09T13:26:47.702Z,12.27
2022-12-09T13:29:40.838Z,13.02
2022-12-09T13:32:29.158Z,13.88
2022-12-09T13:35:14.379Z,15.25
2022-12-09T13:37:59.382Z,13.70
2022-12-09T13:40:42.103Z,15.63
2022-12-09T13:43:26.235Z,13.18
2022-12-09T13:46:09.130Z,13.05
2022-12-09T13:48:52.846Z,11.73
2022-12-09T13:51:44.593Z,14.85
2022-12-09T13:54:29.239Z,12.38
2022-12-09T13:57:16.366Z,12.27
2022-12-09T14:00:00.482Z,13.18
2022-12-09T14:02:46.519Z,15.50
2022-12-09T14:05:31.348Z,13.55
2022-12-09T14:08:19.591Z,12.98
2022-12-09T14:11:29.566Z,13.18
2022-12-09T14:14:30.839Z,16.27
2022-12-09T14:17:21.638Z,13.00
2022-12-09T14:20:16.375Z,15.13
2022-12-09T14:23:20.040Z,13.45
2022-12-09T14:26:05.321Z,11.52
2022-12-09T14:28:57.173Z,14.00
2022-12-09T14:32:01.287Z,12.75
2022-12-09T14:34:44.719Z,12.02
2022-12-09T14:37:48.438Z,13.10
2022-12-09T14:40:36.859Z,14.98
2022-12-09T14:43:40.390Z,13.05
2022-12-09T14:46:25.391Z,12.73
2022-12-09T14:49:14.744Z,14.82
2022-12-09T14:51:58.554Z,13.77
2022-12-09T14:54:44.533Z,14.23
2022-12-09T14:57:28.469Z,12.48
2022-12-09T15:00:25.938Z,13.25
2022-12-09T15:03:39.493Z,14.40
2022-12-09T15:06:26.608Z,12.38
2022-12-09T15:09:16.118Z,14.10
2022-12-09T15:11:59.325Z,11.90
2022-12-09T15:14:44.298Z,13.95
2022-12-09T15:17:29.269Z,11.65
2022-12-09T15:20:21.998Z,11.73
2022-12-09T15:23:07.893Z,13.65
2022-12-09T15:25:51.401Z,23.83
2022-12-09T15:28:34.969Z,14.38
2022-12-09T15:31:19.262Z,14.43
2022-12-09T15:34:09.385Z,17.40
2022-12-09T15:36:53.558Z,15.45
2022-12-09T15:39:40.683Z,13.25
2022-12-09T15:42:27.202Z,13.82
2022-12-09T15:45:11.317Z,11.10
2022-12-09T15:47:55.650Z,14.25
2022-12-09T15:50:42.264Z,16.35
2022-12-09T15:53:26.696Z,11.85
2022-12-09T15:56:13.326Z,13.77
2022-12-09T15:58:58.657Z,14.57
2022-12-09T16:01:47.921Z,13.13
2022-12-09T16:04:31.502Z,14.02
2022-12-09T16:07:16.265Z,15.27
2022-12-09T16:10:17.024Z,15.55
2022-12-09T16:13:09.488Z,15.80
2022-12-09T16:15:53.905Z,14.65
2022-12-09T16:18:49.837Z,16.88
2022-12-09T16:21:34.520Z,13.68
2022-12-09T16:24:17.315Z,15.02
2022-12-09T16:27:00.772Z,13.40
2022-12-09T16:29:48.500Z,14.13
2022-12-09T16:32:34.227Z,14.65
2022-12-09T16:35:21.626Z,15.05
2022-12-09T16:38:15.006Z,15.82
2022-12-09T16:40:59.138Z,14.77
2022-12-09T16:43:56.065Z,16.52
2022-12-09T16:46:41.550Z,15.43
2022-12-09T16:49:24.384Z,17.35
2022-12-09T16:52:07.332Z,16.48
2022-12-09T16:54:50.960Z,20.23
2022-12-09T16:57:33.747Z,17.50
2022-12-09T17:00:17.273Z,21.17
2022-12-09T17:03:03.180Z,17.08
2022-12-09T17:05:47.959Z,19.80
2022-12-09T17:08:32.080Z,19.77
2022-12-09T17:11:16.882Z,19.98
2022-12-09T17:13:59.756Z,21.35
2022-12-09T17:16:42.732Z,18.80
2022-12-09T17:19:27.037Z,19.85
2022-12-09T17:22:10.275Z,20.95
2022-12-09T17:24:52.975Z,16.92
2022-12-09T17:27:35.802Z,21.10
2022-12-09T17:30:18.636Z,23.40
2022-12-09T17:33:01.546Z,19.92
2022-12-09T17:35:45.877Z,20.15
2022-12-09T17:38:29.363Z,18.90
2022-12-09T17:41:15.873Z,20.30
2022-12-09T17:44:00.405Z,19.02
2022-12-09T17:46:43.204Z,18.75
2022-12-09T17:49:25.980Z,18.92
2022-12-09T17:52:10.088Z,19.70
2022-12-09T17:54:52.757Z,19.17
2022-12-09T17:57:35.666Z,18.95
2022-12-09T18:00:18.715Z,18.25
2022-12-09T18:03:02.229Z,18.10
2022-12-09T18:05:44.942Z,18.30
2022-12-09T18:08:30.590Z,17.83
2022-12-09T18:11:13.368Z,20.63
2022-12-09T18:13:56.178Z,17.00
2022-12-09T18:16:39.090Z,19.52
2022-12-09T18:19:24.869Z,15.93
2022-12-09T18:22:07.896Z,15.63
2022-12-09T18:24:52.134Z,16.02
2022-12-09T18:27:34.934Z,16.35
2022-12-09T18:30:17.944Z,17.23
2022-12-09T18:33:00.925Z,19.20
2022-12-09T18:35:43.748Z,18.30
2022-12-09T18:38:26.509Z,19.85
2022-12-09T18:41:12.811Z,17.40
2022-12-09T18:43:56.095Z,20.48
2022-12-09T18:46:39.813Z,19.38
2022-12-09T18:49:28.327Z,16.63
2022-12-09T18:52:11.044Z,18.33
2022-12-09T18:54:53.749Z,18.05
2022-12-09T18:57:37.996Z,18.15
2022-12-09T19:00:20.811Z,19.02
2022-12-09T19:03:03.602Z,19.05
2022-12-09T19:05:46.456Z,19.08
2022-12-09T19:08:29.210Z,17.90
2022-12-09T19:11:11.978Z,18.73
2022-12-09T19:13:56.651Z,17.05
2022-12-09T19:16:39.670Z,19.17
2022-12-09T19:19:23.189Z,17.95
2022-12-09T19:22:08.222Z,17.85
2022-12-09T19:24:51.023Z,18.92
2022-12-09T19:27:33.698Z,20.25
2022-12-09T19:30:17.875Z,19.17
2022-12-09T19:33:00.779Z,21.50
2022-12-09T19:35:43.496Z,18.70
2022-12-09T19:38:26.297Z,18.15
2022-12-09T19:41:09.513Z,17.75
2022-12-09T19:43:55.430Z,17.23
2022-12-09T19:46:40.648Z,16.30
2022-12-09T19:49:24.215Z,15.40
2022-12-09T19:52:06.944Z,15.68
2022-12-09T19:54:49.758Z,15.90
2022-12-09T19:57:32.786Z,16.98
2022-12-09T20:00:16.367Z,16.10
2022-12-09T20:03:01.107Z,18.27
2022-12-09T20:05:48.449Z,20.02
2022-12-09T20:08:31.780Z,18.83
2022-12-09T20:11:15.548Z,17.35
2022-12-09T20:13:58.878Z,17.83
2022-12-09T20:16:41.701Z,18.80
2022-12-09T20:19:25.881Z,22.10
2022-12-09T20:22:08.626Z,18.38
2022-12-09T20:24:51.344Z,21.17
2022-12-09T20:27:35.208Z,23.75
2022-12-09T20:30:19.303Z,23.52
2022-12-09T20:33:02.062Z,22.25
2022-12-09T20:35:46.289Z,24.65
2022-12-09T20:38:29.162Z,20.88
2022-12-09T20:41:12.945Z,27.92
2022-12-09T20:43:56.605Z,27.52
2022-12-09T20:46:40.066Z,25.52
2022-12-09T20:49:26.492Z,24.15
2022-12-09T20:52:10.867Z,26.92
2022-12-09T20:54:53.498Z,24.67
2022-12-09T20:57:36.554Z,25.95
2022-12-09T21:00:19.453Z,26.40
2022-12-09T21:03:02.130Z,27.23
2022-12-09T21:05:44.794Z,25.75
2022-12-09T21:08:31.783Z,26.75
2022-12-09T21:11:16.421Z,25.70
2022-12-09T21:14:00.469Z,27.23
2022-12-09T21:16:43.872Z,30.55
2022-12-09T21:19:30.009Z,28.23
2022-12-09T21:22:12.740Z,28.33
2022-12-09T21:24:56.876Z,24.55
2022-12-09T21:27:39.909Z,28.88
2022-12-09T21:30:24.554Z,27.25
2022-12-09T21:33:07.276Z,25.27
2022-12-09T21:35:50.069Z,28.00
2022-12-09T21:38:33.431Z,30.98
2022-12-09T21:41:18.278Z,32.10
2022-12-09T21:44:01.509Z,27.40
2022-12-09T21:46:44.851Z,28.40
2022-12-09T21:49:31.636Z,26.60
2022-12-09T21:52:14.582Z,23.50
2022-12-09T21:55:00.163Z,30.83
2022-12-09T21:57:44.608Z,26.52
2022-12-09T22:00:27.518Z,29.38
2022-12-09T22:03:10.517Z,28.55
2022-12-09T22:05:58.201Z,29.05
2022-12-09T22:08:42.602Z,31.55
2022-12-09T22:11:25.960Z,28.73
2022-12-09T22:14:10.516Z,28.75
2022-12-09T22:16:53.239Z,34.22
2022-12-09T22:19:36.075Z,29.27
2022-12-09T22:22:18.734Z,30.92
2022-12-09T22:25:01.497Z,30.92
2022-12-09T22:27:44.202Z,30.45
2022-12-09T22:30:28.350Z,30.23
2022-12-09T22:33:11.071Z,34.13
2022-12-09T22:35:53.742Z,32.00
2022-12-09T22:38:37.593Z,30.73
2022-12-09T22:41:21.857Z,32.67
2022-12-09T22:44:04.943Z,34.35
2022-12-09T22:46:48.987Z,35.00
2022-12-09T22:49:31.787Z,31.83
2022-12-09T22:52:14.456Z,36.28
2022-12-09T22:54:57.125Z,31.35
2022-12-09T22:57:39.882Z,30.23
2022-12-09T23:00:22.919Z,32.97
2022-12-09T23:03:07.035Z,31.13
2022-12-09T23:05:50.177Z,30.33
2022-12-09T23:08:32.849Z,33.85
2022-12-09T23:11:16.410Z,30.33
2022-12-09T23:14:00.212Z,28.50
2022-12-09T23:16:43.246Z,31.38
2022-12-09T23:19:27.479Z,29.75
2022-12-09T23:22:10.148Z,30.10
2022-12-09T23:24:52.831Z,35.35
2022-12-09T23:27:35.553Z,31.40
2022-12-09T23:30:18.766Z,31.92
2022-12-09T23:33:01.677Z,29.77
2022-12-09T23:35:45.738Z,29.98
2022-12-09T23:38:28.461Z,27.30
2022-12-09T23:41:11.278Z,31.52
2022-12-09T23:43:54.187Z,27.85
2022-12-09T23:46:37.140Z,30.02
2022-12-09T23:49:19.924Z,27.55
2022-12-09T23:52:04.102Z,28.52
2022-12-09T23:54:46.811Z,29.35
2022-12-09T23:57:30.295Z,26.42
